createdAt,value
2019-03-04T00:02:27.412Z,99154.30
2019-03-04T00:04:55.149Z,99141.16
2019-03-04T00:07:22.423Z,99147.20
2019-03-04T00:09:49.693Z,99144.19
2019-03-04T00:12:17.341Z,99154.05
2019-03-04T00:14:45.222Z,99146.94
2019-03-04T00:17:12.989Z,99143.91
2019-03-04T00:19:41.003Z,99142.55
2019-03-04T00:22:08.663Z,99137.92
2019-03-04T00:24:36.268Z,99135.44
2019-03-04T00:27:04.043Z,99132.17
2019-03-04T00:29:33.981Z,99135.16
2019-03-04T00:32:01.377Z,99131.63
2019-03-04T00:34:28.764Z,99113.28
2019-03-04T00:36:56.629Z,99113.56
2019-03-04T00:39:24.299Z,99106.19
2019-03-04T00:41:51.695Z,99103.72
2019-03-04T00:44:18.866Z,99113.30
2019-03-04T00:46:46.300Z,99113.30
2019-03-04T00:49:15.809Z,99108.91
2019-03-04T00:51:45.731Z,99104.27
2019-03-04T00:54:13.135Z,99100.42
2019-03-04T00:56:40.455Z,99100.14
2019-03-04T00:59:07.720Z,99094.94
2019-03-04T01:01:35.310Z,99101.21
2019-03-04T01:04:02.739Z,99094.10
2019-03-04T01:06:30.619Z,99101.23
2019-03-04T01:08:58.178Z,99092.73
2019-03-04T01:11:25.863Z,99085.84
2019-03-04T01:13:53.684Z,99077.94
2019-03-04T01:16:20.962Z,99076.30
2019-03-04T01:18:49.103Z,99069.77
2019-03-04T01:21:16.610Z,99064.86
2019-03-04T01:23:44.064Z,99070.31
2019-03-04T01:26:12.117Z,99056.39
2019-03-04T01:28:40.382Z,99059.41
2019-03-04T01:31:07.878Z,99053.12
2019-03-04T01:33:35.781Z,99052.56
2019-03-04T01:36:03.258Z,99049.55
2019-03-04T01:38:31.216Z,99046.56
2019-03-04T01:40:59.743Z,99043.55
2019-03-04T01:43:27.154Z,99041.05
2019-03-04T01:45:55.257Z,99035.07
2019-03-04T01:48:23.105Z,99020.25
2019-03-04T01:50:50.495Z,99012.28
2019-03-04T01:53:17.990Z,99003.53
2019-03-04T01:55:45.862Z,98999.69
2019-03-04T01:58:13.251Z,98993.91
2019-03-04T02:00:41.231Z,98985.14
2019-03-04T02:03:09.065Z,98989.45
2019-03-04T02:05:36.716Z,98987.84
2019-03-04T02:08:06.222Z,98993.81
2019-03-04T02:10:33.761Z,98984.44
2019-03-04T02:13:01.478Z,98968.25
2019-03-04T02:15:29.404Z,98978.31
2019-03-04T02:17:57.101Z,98975.52
2019-03-04T02:20:24.479Z,98968.64
2019-03-04T02:22:51.936Z,98979.58
2019-03-04T02:25:55.373Z,98971.07
2019-03-04T02:28:22.917Z,98974.01
2019-03-04T02:30:50.165Z,98959.42
2019-03-04T02:33:17.792Z,98950.84
2019-03-04T02:35:45.694Z,98939.61
2019-03-04T02:38:13.128Z,98926.65
2019-03-04T02:40:40.514Z,98936.47
2019-03-04T02:43:08.105Z,98932.65
2019-03-04T02:45:35.767Z,98937.79
2019-03-04T02:48:03.635Z,98924.05
2019-03-04T02:50:31.313Z,98918.27
2019-03-04T02:52:58.992Z,98903.69
2019-03-04T02:55:28.679Z,98904.77
2019-03-04T02:57:59.892Z,98916.59
2019-03-04T03:00:28.689Z,98922.24
2019-03-04T03:02:56.093Z,98906.73
2019-03-04T03:05:23.997Z,98908.41
2019-03-04T03:07:52.094Z,98906.77
2019-03-04T03:10:19.768Z,98880.47
2019-03-04T03:12:47.431Z,98866.16
2019-03-04T03:15:16.872Z,98879.48
2019-03-04T03:17:44.392Z,98872.31
2019-03-04T03:20:12.250Z,98873.37
2019-03-04T03:22:39.981Z,98860.53
2019-03-04T03:25:08.168Z,98854.80
2019-03-04T03:27:35.440Z,98847.67
2019-03-04T03:30:04.729Z,98825.13
2019-03-04T03:32:32.332Z,98810.09
2019-03-04T03:34:59.776Z,98795.00
2019-03-04T03:37:27.478Z,98786.48
2019-03-04T03:39:55.095Z,98764.83
2019-03-04T03:42:22.898Z,98764.84
2019-03-04T03:44:50.627Z,98757.94
2019-03-04T03:47:18.163Z,98750.50
2019-03-04T03:49:45.588Z,98749.49
2019-03-04T03:52:13.033Z,98772.36
2019-03-04T03:54:40.836Z,98766.01
2019-03-04T03:57:08.504Z,98752.34
2019-03-04T03:59:36.493Z,98753.92
2019-03-04T04:02:04.203Z,98739.16
2019-03-04T04:04:31.548Z,98734.88
2019-03-04T04:06:59.012Z,98740.17
2019-03-04T04:09:26.406Z,98733.36
2019-03-04T04:11:54.447Z,98729.55
2019-03-04T04:14:21.880Z,98727.36
2019-03-04T04:16:49.966Z,98738.69
2019-03-04T04:19:17.939Z,98741.44
2019-03-04T04:21:45.280Z,98752.66
2019-03-04T04:24:12.531Z,98737.07
2019-03-04T04:26:39.925Z,98738.13
2019-03-04T04:29:10.128Z,98735.13
2019-03-04T04:31:37.766Z,98734.93
2019-03-04T04:34:05.550Z,98718.94
2019-03-04T04:36:32.820Z,98709.34
2019-03-04T04:39:01.534Z,98710.17
2019-03-04T04:41:29.846Z,98705.49
2019-03-04T04:43:57.573Z,98709.60
2019-03-04T04:46:48.721Z,98688.53
2019-03-04T04:49:16.712Z,98674.73
2019-03-04T04:51:44.055Z,98664.89
2019-03-04T04:54:11.543Z,98645.70
2019-03-04T04:56:39.118Z,98650.63
2019-03-04T04:59:07.225Z,98655.03
2019-03-04T05:01:38.590Z,98658.14
2019-03-04T05:04:10.484Z,98645.80
2019-03-04T05:06:38.950Z,98644.18
2019-03-04T05:09:07.251Z,98631.03
2019-03-04T05:11:34.559Z,98628.59
2019-03-04T05:14:02.232Z,98622.02
2019-03-04T05:16:30.509Z,98617.09
2019-03-04T05:18:58.284Z,98615.77
2019-03-04T05:21:25.960Z,98612.77
2019-03-04T05:23:53.268Z,98607.03
2019-03-04T05:26:20.718Z,98578.78
2019-03-04T05:28:51.251Z,98530.06
2019-03-04T05:31:19.882Z,98545.08
2019-03-04T05:33:48.837Z,98568.63
2019-03-04T05:36:16.808Z,98564.46
2019-03-04T05:38:44.939Z,98531.88
2019-03-04T05:41:14.061Z,98502.52
2019-03-04T05:43:41.767Z,98476.81
2019-03-04T05:46:09.602Z,98453.95
2019-03-04T05:48:37.399Z,98451.20
2019-03-04T05:51:05.266Z,98462.55
2019-03-04T05:53:33.240Z,98468.09
2019-03-04T05:56:00.986Z,98451.36
2019-03-04T05:58:28.711Z,98438.45
2019-03-04T06:01:35.772Z,98439.01
2019-03-04T06:04:06.939Z,98452.73
2019-03-04T06:06:52.962Z,98466.73
2019-03-04T06:09:20.255Z,98464.23
2019-03-04T06:11:47.907Z,98479.80
2019-03-04T06:14:15.336Z,98478.00
2019-03-04T06:16:47.172Z,98472.91
2019-03-04T06:19:12.203Z,98461.44
2019-03-04T06:21:39.373Z,98464.16
2019-03-04T06:24:07.283Z,98473.44
2019-03-04T06:26:34.562Z,98471.69
2019-03-04T06:29:02.106Z,98477.19
2019-03-04T06:31:30.581Z,98487.02
2019-03-04T06:33:58.787Z,98496.25
2019-03-04T06:36:26.165Z,98512.05
2019-03-04T06:38:53.414Z,98517.75
2019-03-04T06:41:21.050Z,98544.88
2019-03-04T06:43:48.725Z,98525.08
2019-03-04T06:46:16.062Z,98494.64
2019-03-04T06:48:43.565Z,98506.48
2019-03-04T06:51:21.176Z,98544.70
2019-03-04T06:54:31.644Z,98520.77
2019-03-04T06:57:08.448Z,98487.17
2019-03-04T07:00:41.498Z,98453.11
2019-03-04T07:03:20.655Z,98455.40
2019-03-04T07:05:52.299Z,98426.56
2019-03-04T07:09:09.969Z,98428.44
2019-03-04T07:11:48.237Z,98420.33
2019-03-04T07:14:16.173Z,98345.55
2019-03-04T07:16:45.884Z,98314.34
2019-03-04T07:19:25.156Z,98345.25
2019-03-04T07:21:55.969Z,98377.53
2019-03-04T07:24:23.803Z,98417.44
2019-03-04T07:26:51.598Z,98377.75
2019-03-04T07:29:18.943Z,98258.21
2019-03-04T07:31:46.582Z,98329.28
2019-03-04T07:34:14.016Z,98361.69
2019-03-04T07:36:41.782Z,98353.84
2019-03-04T07:39:13.360Z,98365.22
2019-03-04T07:41:43.872Z,98371.70
2019-03-04T07:44:11.805Z,98361.03
2019-03-04T07:46:39.562Z,98352.81
2019-03-04T07:49:07.301Z,98370.36
2019-03-04T07:51:35.734Z,98345.89
2019-03-04T07:54:03.536Z,98341.05
2019-03-04T07:56:30.878Z,98360.83
2019-03-04T07:58:58.744Z,98338.91
2019-03-04T08:01:26.391Z,98304.32
2019-03-04T08:03:53.960Z,98337.36
2019-03-04T08:06:22.153Z,98338.73
2019-03-04T08:09:53.189Z,98326.83
2019-03-04T08:13:03.442Z,98315.44
2019-03-04T08:15:41.014Z,98331.98
2019-03-04T08:18:08.883Z,98365.38
2019-03-04T08:20:36.984Z,98352.98
2019-03-04T08:23:05.197Z,98364.35
2019-03-04T08:25:33.123Z,98380.63
2019-03-04T08:28:00.866Z,98352.83
2019-03-04T08:30:28.983Z,98309.09
2019-03-04T08:32:56.514Z,98345.94
2019-03-04T08:35:24.516Z,98356.58
2019-03-04T08:37:52.173Z,98378.43
2019-03-04T08:40:19.670Z,98366.08
2019-03-04T08:42:47.321Z,98370.05
2019-03-04T08:45:17.994Z,98387.85
2019-03-04T08:47:45.258Z,98362.94
2019-03-04T08:50:13.813Z,98364.02
2019-03-04T08:52:41.600Z,98375.95
2019-03-04T08:55:10.870Z,98357.66
2019-03-04T08:57:38.832Z,98442.33
2019-03-04T09:00:10.895Z,98446.92
2019-03-04T09:02:38.896Z,98442.23
2019-03-04T09:05:09.301Z,98477.19
2019-03-04T09:07:36.828Z,98480.38
2019-03-04T09:10:10.066Z,98485.61
2019-03-04T09:12:37.870Z,98490.28
2019-03-04T09:15:06.105Z,98499.03
2019-03-04T09:17:34.363Z,98512.23
2019-03-04T09:20:04.614Z,98540.83
2019-03-04T09:22:32.682Z,98502.52
2019-03-04T09:25:00.318Z,98528.13
2019-03-04T09:27:27.704Z,98537.45
2019-03-04T09:29:55.196Z,98496.84
2019-03-04T09:32:22.733Z,98501.83
2019-03-04T09:34:50.178Z,98521.22
2019-03-04T09:37:17.579Z,98516.59
2019-03-04T09:39:45.274Z,98526.20
2019-03-04T09:42:21.430Z,98538.09
2019-03-04T09:44:49.054Z,98526.39
2019-03-04T09:47:16.856Z,98536.72
2019-03-04T09:49:44.691Z,98506.39
2019-03-04T09:52:12.353Z,98519.80
2019-03-04T09:54:40.013Z,98527.69
2019-03-04T09:57:07.806Z,98526.88
2019-03-04T09:59:35.654Z,98525.52
2019-03-04T10:02:12.008Z,98522.05
2019-03-04T10:05:17.159Z,98510.59
2019-03-04T10:08:05.970Z,98508.38
2019-03-04T10:11:39.697Z,98513.19
2019-03-04T10:14:36.348Z,98518.19
2019-03-04T10:18:32.467Z,98506.44
2019-03-04T10:21:44.878Z,98500.80
2019-03-04T10:24:33.750Z,98477.56
2019-03-04T10:27:56.691Z,98492.70
2019-03-04T10:31:15.511Z,98489.65
2019-03-04T10:34:20.313Z,98488.70
2019-03-04T10:37:39.486Z,98492.20
2019-03-04T10:40:24.530Z,98492.15
2019-03-04T10:43:44.738Z,98493.95
2019-03-04T10:46:52.241Z,98502.80
2019-03-04T10:49:20.315Z,98510.37
2019-03-04T10:51:47.757Z,98511.95
2019-03-04T10:54:15.170Z,98486.50
2019-03-04T10:56:43.042Z,98486.05
2019-03-04T10:59:10.730Z,98478.05
2019-03-04T11:01:38.675Z,98511.05
2019-03-04T11:04:06.133Z,98499.98
2019-03-04T11:06:34.163Z,98478.17
2019-03-04T11:09:01.556Z,98485.44
2019-03-04T11:11:30.210Z,98505.02
2019-03-04T11:13:57.930Z,98497.13
2019-03-04T11:16:25.505Z,98516.56
2019-03-04T11:18:53.612Z,98496.43
2019-03-04T11:21:21.403Z,98478.56
2019-03-04T11:23:49.033Z,98511.08
2019-03-04T11:26:17.253Z,98513.78
2019-03-04T11:28:45.074Z,98511.59
2019-03-04T11:31:12.597Z,98486.50
2019-03-04T11:33:40.355Z,98483.26
2019-03-04T11:36:07.623Z,98468.48
2019-03-04T11:38:38.771Z,98455.75
2019-03-04T11:41:08.237Z,98454.94
2019-03-04T11:43:35.742Z,98462.98
2019-03-04T11:46:04.206Z,98454.41
2019-03-04T11:48:31.446Z,98444.88
2019-03-04T11:51:02.139Z,98433.43
2019-03-04T11:53:29.304Z,98434.77
2019-03-04T11:55:56.996Z,98426.13
2019-03-04T11:58:24.752Z,98443.16
2019-03-04T12:01:07.299Z,98462.59
2019-03-04T12:03:34.978Z,98434.47
2019-03-04T12:06:02.662Z,98444.05
2019-03-04T12:08:30.306Z,98412.88
2019-03-04T12:10:57.570Z,98435.15
2019-03-04T12:13:24.973Z,98433.30
2019-03-04T12:15:53.272Z,98421.52
2019-03-04T12:18:21.666Z,98417.26
2019-03-04T12:20:49.107Z,98418.94
2019-03-04T12:23:16.819Z,98413.12
2019-03-04T12:25:44.583Z,98414.60
2019-03-04T12:28:12.586Z,98430.24
2019-03-04T12:30:40.141Z,98444.45
2019-03-04T12:33:09.206Z,98445.20
2019-03-04T12:35:37.349Z,98449.95
2019-03-04T12:38:05.199Z,98452.45
2019-03-04T12:40:32.457Z,98446.71
2019-03-04T12:42:59.967Z,98456.46
2019-03-04T12:45:34.441Z,98443.64
2019-03-04T12:47:57.544Z,98426.76
2019-03-04T12:50:26.043Z,98430.63
2019-03-04T12:52:53.788Z,98428.36
2019-03-04T12:55:21.386Z,98408.84
2019-03-04T12:57:49.824Z,98404.20
2019-03-04T13:00:19.727Z,98415.78
2019-03-04T13:02:56.702Z,98435.73
2019-03-04T13:05:17.426Z,98444.00
2019-03-04T13:07:45.000Z,98444.92
2019-03-04T13:10:13.245Z,98433.67
2019-03-04T13:12:41.657Z,98425.27
2019-03-04T13:15:20.548Z,98447.25
2019-03-04T13:17:48.087Z,98458.79
2019-03-04T13:20:15.718Z,98475.71
2019-03-04T13:22:43.098Z,98533.17
2019-03-04T13:25:11.037Z,98528.41
2019-03-04T13:27:38.510Z,98479.08
2019-03-04T13:30:09.647Z,98454.86
2019-03-04T13:32:37.417Z,98473.78
2019-03-04T13:35:07.526Z,98492.57
2019-03-04T13:37:35.277Z,98483.33
2019-03-04T13:40:07.176Z,98510.00
2019-03-04T13:42:34.430Z,98516.52
2019-03-04T13:45:02.096Z,98528.23
2019-03-04T13:47:30.294Z,98535.58
2019-03-04T13:49:57.659Z,98538.86
2019-03-04T13:52:25.617Z,98527.41
2019-03-04T13:54:53.349Z,98508.86
2019-03-04T13:57:20.641Z,98520.06
2019-03-04T13:59:48.156Z,98506.98
2019-03-04T14:02:15.399Z,98504.80
2019-03-04T14:04:43.470Z,98492.48
2019-03-04T14:07:11.274Z,98496.62
2019-03-04T14:09:39.056Z,98504.31
2019-03-04T14:12:07.045Z,98526.94
2019-03-04T14:14:35.299Z,98514.41
2019-03-04T14:17:03.146Z,98525.88
2019-03-04T14:19:30.702Z,98534.85
2019-03-04T14:21:58.589Z,98551.20
2019-03-04T14:24:25.767Z,98556.59
2019-03-04T14:26:53.443Z,98569.69
2019-03-04T14:29:21.131Z,98557.61
2019-03-04T14:31:48.737Z,98542.97
2019-03-04T14:34:16.290Z,98549.80
2019-03-04T14:36:44.091Z,98554.38
2019-03-04T14:39:14.835Z,98543.47
2019-03-04T14:41:42.772Z,98543.24
2019-03-04T14:44:10.794Z,98543.69
2019-03-04T14:46:38.606Z,98538.01
2019-03-04T14:49:05.949Z,98542.14
2019-03-04T14:55:33.689Z,98544.30
2019-03-04T14:58:01.986Z,98539.08
2019-03-04T15:00:35.186Z,98550.86
2019-03-04T15:03:03.705Z,98546.23
2019-03-04T15:05:31.580Z,98566.95
2019-03-04T15:08:02.506Z,98568.59
2019-03-04T15:10:30.520Z,98596.16
2019-03-04T15:12:58.035Z,98616.86
2019-03-04T15:15:25.611Z,98643.34
2019-03-04T15:17:53.882Z,98658.91
2019-03-04T15:20:22.763Z,98643.36
2019-03-04T15:22:50.214Z,98681.25
2019-03-04T15:25:21.560Z,98673.89
2019-03-04T15:27:49.310Z,98679.36
2019-03-04T15:30:17.462Z,98689.72
2019-03-04T15:32:45.099Z,98695.72
2019-03-04T15:35:12.634Z,98710.16
2019-03-04T15:37:40.516Z,98701.98
2019-03-04T15:40:08.459Z,98706.88
2019-03-04T15:42:36.302Z,98707.98
2019-03-04T15:45:04.769Z,98721.05
2019-03-04T15:47:32.591Z,98736.06
2019-03-04T15:49:59.804Z,98746.67
2019-03-04T15:52:27.116Z,98748.58
2019-03-04T15:54:54.731Z,98754.30
2019-03-04T15:57:22.373Z,98754.55
2019-03-04T15:59:50.324Z,98758.91
2019-03-04T16:02:18.023Z,98774.45
2019-03-04T16:04:45.787Z,98786.44
2019-03-04T16:07:14.443Z,98792.41
2019-03-04T16:09:42.441Z,98786.42
2019-03-04T16:12:12.489Z,98795.95
2019-03-04T16:14:40.682Z,98788.81
2019-03-04T16:17:08.739Z,98784.94
2019-03-04T16:19:36.704Z,98792.81
2019-03-04T16:22:04.206Z,98802.65
2019-03-04T16:24:31.859Z,98810.79
2019-03-04T16:27:10.228Z,98812.82
2019-03-04T16:29:38.049Z,98830.52
2019-03-04T16:32:06.126Z,98838.10
2019-03-04T16:34:33.814Z,98842.22
2019-03-04T16:37:05.797Z,98837.00
2019-03-04T16:39:33.510Z,98851.75
2019-03-04T16:42:01.190Z,98871.48
2019-03-04T16:44:28.707Z,98887.80
2019-03-04T16:46:56.753Z,98883.63
2019-03-04T16:49:24.735Z,98902.55
2019-03-04T16:51:52.679Z,98908.92
2019-03-04T16:54:20.407Z,98922.07
2019-03-04T16:56:48.344Z,98928.53
2019-03-04T16:59:16.096Z,98939.47
2019-03-04T17:01:43.463Z,98951.11
2019-03-04T17:04:11.351Z,98955.03
2019-03-04T17:06:38.993Z,98957.93
2019-03-04T17:09:16.478Z,98964.98
2019-03-04T17:11:45.524Z,98968.53
2019-03-04T17:14:14.262Z,98988.23
2019-03-04T17:16:45.261Z,98989.58
2019-03-04T17:19:12.790Z,98992.84
2019-03-04T17:21:41.648Z,98995.92
2019-03-04T17:24:09.112Z,99006.23
2019-03-04T17:26:37.322Z,99004.92
2019-03-04T17:29:05.373Z,99013.59
2019-03-04T17:31:32.851Z,99021.66
2019-03-04T17:34:00.710Z,99028.80
2019-03-04T17:36:28.658Z,99031.64
2019-03-04T17:38:56.490Z,99043.77
2019-03-04T17:41:24.207Z,99041.95
2019-03-04T17:43:51.480Z,99049.54
2019-03-04T17:46:19.406Z,99065.38
2019-03-04T17:48:46.832Z,99068.77
2019-03-04T17:51:14.825Z,99074.62
2019-03-04T17:53:42.859Z,99075.88
2019-03-04T17:56:10.870Z,99079.98
2019-03-04T17:58:38.261Z,99084.66
2019-03-04T18:01:06.411Z,99082.98
2019-03-04T18:03:35.629Z,99090.33
2019-03-04T18:06:04.775Z,99087.25
2019-03-04T18:08:32.175Z,99098.55
2019-03-04T18:10:59.536Z,99102.25
2019-03-04T18:13:27.199Z,99099.66
2019-03-04T18:15:54.637Z,99108.16
2019-03-04T18:18:22.188Z,99111.80
2019-03-04T18:20:49.664Z,99114.86
2019-03-04T18:23:17.200Z,99109.52
2019-03-04T18:26:11.846Z,99116.94
2019-03-04T18:29:25.579Z,99113.50
2019-03-04T18:33:00.429Z,99121.92
2019-03-04T18:36:16.165Z,99132.16
2019-03-04T18:39:53.729Z,99130.08
2019-03-04T18:43:02.146Z,99141.23
2019-03-04T18:46:17.235Z,99149.21
2019-03-04T18:48:58.827Z,99163.64
2019-03-04T18:51:28.832Z,99164.09
2019-03-04T18:54:00.047Z,99165.20
2019-03-04T18:56:27.918Z,99173.45
2019-03-04T18:58:55.722Z,99174.34
2019-03-04T19:01:23.546Z,99180.45
2019-03-04T19:03:50.986Z,99178.09
2019-03-04T19:06:19.190Z,99186.06
2019-03-04T19:08:47.317Z,99192.81
2019-03-04T19:11:15.502Z,99206.47
2019-03-04T19:13:43.600Z,99208.64
2019-03-04T19:16:11.233Z,99200.79
2019-03-04T19:18:40.178Z,99210.61
2019-03-04T19:21:08.011Z,99211.96
2019-03-04T19:23:36.189Z,99213.53
2019-03-04T19:26:03.878Z,99211.22
2019-03-04T19:28:31.598Z,99224.72
2019-03-04T19:30:59.506Z,99227.17
2019-03-04T19:33:27.333Z,99232.22
2019-03-04T19:35:55.480Z,99234.16
2019-03-04T19:38:22.898Z,99231.58
2019-03-04T19:40:50.668Z,99230.64
2019-03-04T19:43:18.390Z,99234.58
2019-03-04T19:45:46.518Z,99239.33
2019-03-04T19:48:16.493Z,99233.50
2019-03-04T19:50:44.455Z,99238.33
2019-03-04T19:53:13.582Z,99248.69
2019-03-04T19:55:41.210Z,99256.55
2019-03-04T19:58:08.900Z,99252.03
2019-03-04T20:00:37.290Z,99251.09
2019-03-04T20:03:05.755Z,99257.58
2019-03-04T20:05:33.649Z,99260.16
2019-03-04T20:08:01.511Z,99262.06
2019-03-04T20:10:30.134Z,99268.89
2019-03-04T20:13:00.679Z,99261.00
2019-03-04T20:15:31.324Z,99263.14
2019-03-04T20:17:59.640Z,99263.14
2019-03-04T20:20:28.050Z,99259.69
2019-03-04T20:22:55.954Z,99259.06
2019-03-04T20:25:23.921Z,99263.75
2019-03-04T20:27:51.725Z,99275.94
2019-03-04T20:30:19.663Z,99283.02
2019-03-04T20:32:47.446Z,99280.70
2019-03-04T20:35:15.437Z,99278.83
2019-03-04T20:37:47.208Z,99279.19
2019-03-04T20:40:15.173Z,99280.80
2019-03-04T20:42:42.678Z,99278.70
2019-03-04T20:45:11.021Z,99286.52
2019-03-04T20:47:38.463Z,99280.15
2019-03-04T20:50:10.115Z,99282.00
2019-03-04T20:52:37.886Z,99280.56
2019-03-04T20:55:06.745Z,99285.62
2019-03-04T20:57:35.773Z,99286.56
2019-03-04T21:00:07.014Z,99289.98
2019-03-04T21:02:34.688Z,99285.86
2019-03-04T21:05:04.591Z,99285.91
2019-03-04T21:07:32.498Z,99280.51
2019-03-04T21:10:00.998Z,99290.09
2019-03-04T21:12:29.294Z,99287.34
2019-03-04T21:14:57.307Z,99288.33
2019-03-04T21:17:24.529Z,99294.94
2019-03-04T21:19:53.348Z,99307.09
2019-03-04T21:22:21.498Z,99301.43
2019-03-04T21:24:49.871Z,99300.72
2019-03-04T21:27:21.957Z,99302.85
2019-03-04T21:30:54.626Z,99313.09
2019-03-04T21:34:40.859Z,99317.93
2019-03-04T21:41:46.697Z,99328.61
2019-03-04T21:45:09.623Z,99325.48
2019-03-04T21:47:45.685Z,99328.09
2019-03-04T21:50:17.873Z,99319.32
2019-03-04T21:53:25.951Z,99315.25
2019-03-04T21:56:44.238Z,99316.59
2019-03-04T21:59:11.705Z,99320.02
2019-03-04T22:01:46.221Z,99319.81
2019-03-04T22:04:13.962Z,99315.69
2019-03-04T22:06:42.129Z,99317.58
2019-03-04T22:09:09.483Z,99328.60
2019-03-04T22:11:37.531Z,99319.11
2019-03-04T22:14:04.869Z,99333.05
2019-03-04T22:16:32.944Z,99323.63
2019-03-04T22:19:00.672Z,99325.08
2019-03-04T22:21:28.524Z,99338.19
2019-03-04T22:23:56.590Z,99332.67
2019-03-04T22:26:24.739Z,99341.47
2019-03-04T22:28:52.969Z,99346.78
2019-03-04T22:31:20.136Z,99347.44
2019-03-04T22:33:47.709Z,99342.09
2019-03-04T22:36:15.747Z,99349.62
2019-03-04T22:38:44.206Z,99342.75
2019-03-04T22:41:13.683Z,99338.56
2019-03-04T22:43:41.218Z,99343.99
2019-03-04T22:46:09.234Z,99339.64
2019-03-04T22:48:37.549Z,99341.77
2019-03-04T22:51:05.558Z,99337.53
2019-03-04T22:53:32.748Z,99343.62
2019-03-04T22:56:00.350Z,99343.99
2019-03-04T22:58:29.137Z,99345.63
2019-03-04T23:01:44.734Z,99359.13
2019-03-04T23:04:50.527Z,99352.75
2019-03-04T23:07:27.811Z,99361.31
2019-03-04T23:10:33.961Z,99366.57
2019-03-04T23:13:39.770Z,99375.37
2019-03-04T23:16:09.347Z,99383.22
2019-03-04T23:18:37.006Z,99395.19
2019-03-04T23:21:06.454Z,99407.20
2019-03-04T23:23:33.915Z,99407.74
2019-03-04T23:26:01.506Z,99417.73
2019-03-04T23:28:28.831Z,99422.86
2019-03-04T23:30:56.470Z,99420.78
2019-03-04T23:33:23.872Z,99424.47
2019-03-04T23:35:51.586Z,99433.72
2019-03-04T23:38:19.761Z,99422.55
2019-03-04T23:40:47.315Z,99417.14
2019-03-04T23:43:15.141Z,99423.40
2019-03-04T23:45:43.026Z,99428.63
2019-03-04T23:48:10.974Z,99435.08
2019-03-04T23:50:38.831Z,99419.52
2019-03-04T23:53:06.558Z,99432.77
2019-03-04T23:55:33.830Z,99433.14
2019-03-04T23:58:01.575Z,99419.86
